createdAt,value
2019-06-01T00:00:10.827Z,65.50
2019-06-01T00:05:00.984Z,65.22
2019-06-01T00:10:03.388Z,65.15
2019-06-01T00:15:05.918Z,65.16
2019-06-01T00:20:07.489Z,65.25
2019-06-01T00:25:09.043Z,65.41
2019-06-01T00:30:25.943Z,65.68
2019-06-01T00:35:14.234Z,65.39
2019-06-01T00:40:15.805Z,65.59
2019-06-01T00:45:17.216Z,66.56
2019-06-01T00:50:18.671Z,67.07
2019-06-01T00:55:20.158Z,66.77
2019-06-01T01:00:21.730Z,67.29
2019-06-01T01:05:23.128Z,67.03
2019-06-01T01:10:24.649Z,66.66
2019-06-01T01:15:26.156Z,66.78
2019-06-01T01:20:27.744Z,66.68
2019-06-01T01:25:29.375Z,66.72
2019-06-01T01:30:30.817Z,66.67
2019-06-01T01:35:32.341Z,67.12
2019-06-01T01:40:33.758Z,68.15
2019-06-01T01:45:35.229Z,68.30
2019-06-01T01:50:36.754Z,67.82
2019-06-01T01:55:38.233Z,67.84
2019-06-01T02:00:41.702Z,67.51
2019-06-01T02:05:43.195Z,67.81
2019-06-01T02:10:44.760Z,67.62
2019-06-01T02:15:46.231Z,67.53
2019-06-01T02:20:47.807Z,67.89
2019-06-01T02:25:49.281Z,67.75
2019-06-01T02:30:50.797Z,67.74
2019-06-01T02:35:54.192Z,68.11
2019-06-01T02:40:57.011Z,68.42
2019-06-01T02:46:00.498Z,68.10
2019-06-01T02:51:04.083Z,68.23
2019-06-01T02:56:06.251Z,68.34
2019-06-01T03:01:55.932Z,68.24
2019-06-01T03:06:44.740Z,68.09
2019-06-01T03:11:46.356Z,68.46
2019-06-01T03:16:47.856Z,68.73
2019-06-01T03:21:49.365Z,70.18
2019-06-01T03:26:51.588Z,70.03
2019-06-01T03:31:53.135Z,69.66
2019-06-01T03:36:56.313Z,69.47
2019-06-01T03:41:57.923Z,69.57
2019-06-01T03:46:59.402Z,69.54
2019-06-01T03:52:00.962Z,73.00
2019-06-01T03:57:03.646Z,71.00
2019-06-01T04:02:07.006Z,69.93
2019-06-01T04:07:08.606Z,69.68
2019-06-01T04:12:10.080Z,69.67
2019-06-01T04:17:12.235Z,69.42
2019-06-01T04:22:13.940Z,69.62
2019-06-01T04:27:15.422Z,69.69
2019-06-01T04:32:16.870Z,69.66
2019-06-01T04:37:18.258Z,69.33
2019-06-01T04:42:19.776Z,69.20
2019-06-01T04:47:21.233Z,70.38
2019-06-01T04:52:22.733Z,70.13
2019-06-01T04:57:24.188Z,69.29
2019-06-01T05:02:25.706Z,69.38
2019-06-01T05:07:27.323Z,68.70
2019-06-01T05:12:28.874Z,70.03
2019-06-01T05:17:30.381Z,70.26
2019-06-01T05:22:32.043Z,68.83
2019-06-01T05:27:33.555Z,69.11
2019-06-01T05:32:35.134Z,68.79
2019-06-01T05:37:36.756Z,68.16
2019-06-01T05:42:38.279Z,68.17
2019-06-01T05:47:39.767Z,68.07
2019-06-01T05:52:41.619Z,67.19
2019-06-01T05:57:43.019Z,67.04
2019-06-01T06:02:44.554Z,67.05
2019-06-01T06:07:46.327Z,67.25
2019-06-01T06:12:47.857Z,67.30
2019-06-01T06:17:49.419Z,67.05
2019-06-01T06:22:50.971Z,66.62
2019-06-01T06:27:52.736Z,66.95
2019-06-01T06:32:54.177Z,68.16
2019-06-01T06:37:55.768Z,68.32
2019-06-01T06:42:57.365Z,69.07
2019-06-01T06:47:58.894Z,67.72
2019-06-01T06:53:00.516Z,67.00
2019-06-01T06:58:02.541Z,65.06
2019-06-01T07:03:04.405Z,65.59
2019-06-01T07:08:05.874Z,65.47
2019-06-01T07:13:07.292Z,64.89
2019-06-01T07:18:08.677Z,65.15
2019-06-01T07:23:10.185Z,64.02
2019-06-01T07:28:11.669Z,63.46
2019-06-01T07:33:13.170Z,62.53
2019-06-01T07:38:14.581Z,61.61
2019-06-01T07:43:15.896Z,60.47
2019-06-01T07:48:17.416Z,59.08
2019-06-01T07:53:19.017Z,60.13
2019-06-01T07:58:20.894Z,59.45
2019-06-01T08:03:25.760Z,59.27
2019-06-01T08:08:27.245Z,58.94
2019-06-01T08:13:33.476Z,58.38
2019-06-01T08:18:32.854Z,57.76
2019-06-01T08:23:34.289Z,56.40
2019-06-01T08:28:35.809Z,54.94
2019-06-01T08:33:37.214Z,54.82
2019-06-01T08:38:38.855Z,54.36
2019-06-01T08:43:40.295Z,53.51
2019-06-01T08:48:41.767Z,54.09
2019-06-01T08:53:43.301Z,53.51
2019-06-01T08:58:44.897Z,52.11
2019-06-01T09:03:47.084Z,50.28
2019-06-01T09:08:48.675Z,50.59
2019-06-01T09:13:52.271Z,49.16
2019-06-01T09:18:53.527Z,49.00
2019-06-01T09:23:55.012Z,49.43
2019-06-01T09:28:56.570Z,49.15
2019-06-01T09:33:58.060Z,48.53
2019-06-01T09:38:59.614Z,47.75
2019-06-01T09:44:01.266Z,47.60
2019-06-01T09:49:02.692Z,47.72
2019-06-01T09:54:04.099Z,46.57
2019-06-01T09:59:06.773Z,45.36
2019-06-01T10:04:08.273Z,45.64
2019-06-01T10:09:09.805Z,46.05
2019-06-01T10:14:11.384Z,45.79
2019-06-01T10:19:12.810Z,46.60
2019-06-01T10:24:14.366Z,44.82
2019-06-01T10:29:15.964Z,45.45
2019-06-01T10:34:17.467Z,44.40
2019-06-01T10:39:19.855Z,43.22
2019-06-01T10:44:21.452Z,42.93
2019-06-01T10:49:22.935Z,44.15
2019-06-01T10:54:24.459Z,43.56
2019-06-01T10:59:26.026Z,43.85
2019-06-01T11:04:27.853Z,43.43
2019-06-01T11:09:29.389Z,43.49
2019-06-01T11:14:32.901Z,42.81
2019-06-01T11:19:35.268Z,43.39
2019-06-01T11:24:37.446Z,42.91
2019-06-01T11:29:47.858Z,43.74
2019-06-01T11:34:42.541Z,42.35
2019-06-01T11:39:44.782Z,43.19
2019-06-01T11:44:46.473Z,42.69
2019-06-01T11:49:47.951Z,43.66
2019-06-01T11:54:49.556Z,42.77
2019-06-01T11:59:51.011Z,42.77
2019-06-01T12:04:52.379Z,41.77
2019-06-01T12:09:53.916Z,42.90
2019-06-01T12:14:55.426Z,42.69
2019-06-01T12:19:56.983Z,40.91
2019-06-01T12:24:58.543Z,42.65
2019-06-01T12:29:59.950Z,42.25
2019-06-01T12:35:03.362Z,41.83
2019-06-01T12:40:07.766Z,40.31
2019-06-01T12:45:16.442Z,42.15
2019-06-01T12:50:18.003Z,41.96
2019-06-01T12:55:19.726Z,41.20
2019-06-01T13:00:21.195Z,40.50
2019-06-01T13:05:22.705Z,39.76
2019-06-01T13:10:25.402Z,39.75
2019-06-01T13:15:28.770Z,40.11
2019-06-01T13:20:30.363Z,38.34
2019-06-01T13:25:31.893Z,39.04
2019-06-01T13:30:33.508Z,40.53
2019-06-01T13:35:34.990Z,38.72
2019-06-01T13:40:36.660Z,39.28
2019-06-01T13:45:38.161Z,39.54
2019-06-01T13:50:39.688Z,38.23
2019-06-01T13:55:41.235Z,38.69
2019-06-01T14:00:42.760Z,38.03
2019-06-01T14:05:44.691Z,38.35
2019-06-01T14:10:47.162Z,37.94
2019-06-01T14:15:49.495Z,38.78
2019-06-01T14:20:51.754Z,38.56
2019-06-01T14:25:54.272Z,37.13
2019-06-01T14:30:56.461Z,38.21
2019-06-01T14:35:58.140Z,37.19
2019-06-01T14:40:59.482Z,37.67
2019-06-01T14:46:00.872Z,37.58
2019-06-01T14:51:02.341Z,36.26
2019-06-01T14:56:03.977Z,36.47
2019-06-01T15:01:05.638Z,37.90
2019-06-01T15:06:07.171Z,37.54
2019-06-01T15:11:08.773Z,37.96
2019-06-01T15:16:10.307Z,35.73
2019-06-01T15:21:11.761Z,37.73
2019-06-01T15:26:13.059Z,38.05
2019-06-01T15:31:16.786Z,35.31
2019-06-01T15:36:18.340Z,36.07
2019-06-01T15:41:20.114Z,36.02
2019-06-01T15:46:21.876Z,37.33
2019-06-01T15:51:25.830Z,36.23
2019-06-01T15:56:27.385Z,35.39
2019-06-01T16:01:28.820Z,35.53
2019-06-01T16:06:30.435Z,35.99
2019-06-01T16:11:31.985Z,35.67
2019-06-01T16:16:33.437Z,36.87
2019-06-01T16:21:35.116Z,36.53
2019-06-01T16:26:36.629Z,35.87
2019-06-01T16:31:38.113Z,36.98
2019-06-01T16:36:41.795Z,37.50
2019-06-01T16:41:43.448Z,37.67
2019-06-01T16:46:44.955Z,37.47
2019-06-01T16:51:53.201Z,37.21
2019-06-01T16:56:55.930Z,37.33
2019-06-01T17:01:58.987Z,36.63
2019-06-01T17:07:00.778Z,37.40
2019-06-01T17:12:03.453Z,37.71
2019-06-01T17:17:05.228Z,38.02
2019-06-01T17:22:07.683Z,38.06
2019-06-01T17:27:09.427Z,37.89
2019-06-01T17:32:23.590Z,38.69
2019-06-01T17:37:14.687Z,39.84
2019-06-01T17:42:16.358Z,40.06
2019-06-01T17:47:17.902Z,40.74
2019-06-01T17:52:19.376Z,41.49
2019-06-01T17:57:20.822Z,43.39
2019-06-01T18:02:22.421Z,43.73
2019-06-01T18:07:23.853Z,43.90
2019-06-01T18:12:25.379Z,43.88
2019-06-01T18:17:26.947Z,44.29
2019-06-01T18:22:28.403Z,44.38
2019-06-01T18:27:30.023Z,45.00
2019-06-01T18:32:31.634Z,46.13
2019-06-01T18:37:33.170Z,46.61
2019-06-01T18:42:34.703Z,47.52
2019-06-01T18:47:36.237Z,48.08
2019-06-01T18:52:38.033Z,48.26
2019-06-01T18:57:40.317Z,48.75
2019-06-01T19:02:42.328Z,49.52
2019-06-01T19:07:51.025Z,50.07
2019-06-01T19:12:52.770Z,50.66
2019-06-01T19:17:56.480Z,51.01
2019-06-01T19:22:57.786Z,51.45
2019-06-01T19:27:59.255Z,52.09
2019-06-01T19:33:00.765Z,52.56
2019-06-01T19:38:02.453Z,53.01
2019-06-01T19:43:04.402Z,53.26
2019-06-01T19:48:05.932Z,53.59
2019-06-01T19:53:08.536Z,53.96
2019-06-01T19:58:10.547Z,53.99
2019-06-01T20:03:14.764Z,53.99
2019-06-01T20:08:18.054Z,53.87
2019-06-01T20:13:21.427Z,53.83
2019-06-01T20:18:25.805Z,53.54
2019-06-01T20:23:27.470Z,53.64
2019-06-01T20:28:31.210Z,53.50
2019-06-01T20:33:33.479Z,53.43
2019-06-01T20:38:35.152Z,53.43
2019-06-01T20:43:36.775Z,53.63
2019-06-01T20:48:42.085Z,53.81
2019-06-01T20:53:43.463Z,54.10
2019-06-01T20:58:45.002Z,54.46
2019-06-01T21:03:46.876Z,54.74
2019-06-01T21:08:48.392Z,55.00
2019-06-01T21:13:49.978Z,55.81
2019-06-01T21:19:01.530Z,56.01
2019-06-01T21:24:03.334Z,56.18
2019-06-01T21:29:05.060Z,56.06
2019-06-01T21:34:06.468Z,55.99
2019-06-01T21:39:08.015Z,56.31
2019-06-01T21:44:09.505Z,56.80
2019-06-01T21:49:11.075Z,57.06
2019-06-01T21:54:12.540Z,57.57
2019-06-01T21:59:14.049Z,58.11
2019-06-01T22:04:16.637Z,58.94
2019-06-01T22:09:19.108Z,58.67
2019-06-01T22:14:21.345Z,59.65
2019-06-01T22:19:23.889Z,59.63
2019-06-01T22:24:26.004Z,60.19
2019-06-01T22:29:28.599Z,60.18
2019-06-01T22:34:30.228Z,60.63
2019-06-01T22:39:31.636Z,61.18
2019-06-01T22:44:33.146Z,61.44
2019-06-01T22:49:34.653Z,61.30
2019-06-01T22:54:36.231Z,61.71
2019-06-01T22:59:37.648Z,61.57
2019-06-01T23:04:39.040Z,61.91
2019-06-01T23:09:40.606Z,61.53
2019-06-01T23:14:42.113Z,61.78
2019-06-01T23:19:43.635Z,61.64
2019-06-01T23:24:45.167Z,62.23
2019-06-01T23:29:46.706Z,62.31
2019-06-01T23:34:48.206Z,62.93
2019-06-01T23:39:49.857Z,63.06
2019-06-01T23:44:51.332Z,62.88
2019-06-01T23:49:52.833Z,63.36
2019-06-01T23:54:54.306Z,64.33
2019-06-01T23:59:55.829Z,65.13
